Airfield :
LOGIN :

Register | Disclaimer

   EN    FR    IT 

 










Legend :    VFR   Marginal VFR   IFR   Intensive IFR   Very Intensive IFR
Visi :
Ceiling :
>= 8 km
>= 3000ft
5 to 8 km
1000 to 3000 ft
1500m to 5 km
500 to 1000 ft
800 to 1500m
200 to 500 ft
< 800m
< 200 ft
Symbols :   Thunderstorms  Fog  Heavy snow  Heavy precipitations  Wind > 20 kt
SIGMETs :     Misc.  Thunderstorms  Icing  Turbulence  Mountain Waves  Volcanic Ashes






- Airport Elevation : 425 ft
- IATA code : DTM


EDLW - Dortmund

CURRENT METAR :
  • 231850Z 05005KT CAVOK 22/11 Q1014

EXPIRED METARs :
  • 231820Z 04006KT CAVOK 23/11 Q1014
  • 231750Z 03005KT 360V060 CAVOK 24/11 Q1014
  • 231720Z 03006KT 350V070 CAVOK 24/11 Q1014
  • 231650Z 03004KT 330V090 CAVOK 24/11 Q1015
  • 231620Z 02005KT 310V080 CAVOK 25/11 Q1015

TAF TAF EDLW
Valid from the 23 at 18:00 until the 24 at 18:00 UTC


231700Z 2318/2418 04004KT CAVOK
BECMG 2407/2411 17005KT
TEMPO 2414/2417 22012KT TSRA BKN035CB



MET'MAP, your aeronautical weather chart ! - Copyright ORBIFLY December 2007 - Disclaimer

ORBIFLY MET'MAP TEAM :

Programming & Development : Alexandra Zaïnal
Concept & original design : Baudouin d'Aumeries
Assistance for programming : Marc-Olivier Méhu
Technical & hardware support : Manuel Goepfert

Contact : metmap@orbifly.com




SOURCES & CREDITS :

   NOAA